x

Mid Gulf - 180 Nm South Of Southwest Pass, La (42001) Wave Buoy

6:50am - Mon 24th Nov 2014 All times are UTC.

  • Sig Wave height 3.9ft
  • Peak Period 6s
  • Average Period 5s
  • Wind
    13mph, 16mph gusts
  • Sea Temp 76°f
  • Air Temp 76°f
  • Sea Pressure 1009.6mb

More Historic Weather Station data

Upgrade to MSW Pro to gain access to the past 30 days of data for over 8000 Wavebouys and Weather Stations around the globe.

Join Pro

Comparision Forecast

View Surf forecast
   
Mon 11/24 6:50am 4ft 6s 5s 13 16 mph 1009.6mb 76f 76f
5:50am 4.5ft 6s 5s 16 18 mph 1009.6mb 76f 76f
4:50am 4.5ft 6s 5s 16 18 mph 1009.8mb 76f 76f
3:50am 5ft 6s 6s 13 16 mph 1009.9mb 76f 76f
2:50am 5ft 7s 6s 13 16 mph 1010mb 76f 76f
1:50am 5ft 6s 6s 13 16 mph 1009.5mb 76f 76f
12:50am 5.5ft 7s 6s 16 18 mph 1008.7mb 76f 76f
Sun 11/23 11:50pm 6ft 7s 6s 13 18 mph 1008.5mb 76f 76f
10:50pm 5.5ft 6s 5s 11 13 mph 1008.4mb 76f 77f
9:50pm 6ft 6s 5s 4 7 mph 1008.7mb 76f 76f
8:50pm 6ft 7s 5s 4
mph
1008.8mb 76f 74f
7:50pm 5ft 6s 5s 7 9 mph 1009.2mb 76f 73f
6:50pm 5ft 6s 5s 9 11 mph 1010.1mb 76f 72f
5:50pm 5ft 6s 5s 16 20 mph 1011.3mb 76f 73f
4:50pm 6ft 6s 5s 16 18 mph 1011.9mb 76f 77f
3:50pm 5ft 9s 5s 16 18 mph 1012.1mb 76f 77f
2:50pm 6ft 5s 5s 13 16 mph 1012.4mb 76f 77f
1:50pm 6ft 6s 5s 18 22 mph 1011.1mb 76f 77f
12:50pm 6ft 6s 5s 22 27 mph 1009.6mb 76f 77f
11:50am 6ft 5s 5s 22 27 mph 1009.5mb 76f 77f
10:50am 6ft 9s 5s 25 29 mph 1009mb 76f 77f
9:50am 6ft 9s 5s 22 29 mph 1009mb 76f 76f
8:50am 5.5ft 8s 5s 22 29 mph 1008.8mb 76f 76f
7:50am 6ft 8s 5s 20 25 mph 1009.8mb 76f 76f
6:50am 6ft 8s 6s 16 20 mph 1011.3mb 76f 76f
5:50am 6ft 9s 5s 16 20 mph 1012mb 76f 76f
4:50am 7ft 8s 6s 13 16 mph 1013.1mb 76f 76f
3:50am 7ft 8s 6s 20 25 mph 1012mb 76f 76f
2:50am 6ft 9s 6s 27 31 mph 1011.6mb 76f 76f
1:50am 6.5ft 8s 6s 25 29 mph 1012mb 76f 76f
12:50am 6.5ft 8s 6s 16 20 mph 1013.8mb 76f 76f
Sat 11/22 11:50pm 6.5ft 8s 6s 11 16 mph 1014.7mb 76f 76f
10:50pm 6ft 8s 6s 7 9 mph 1015.5mb 76f 76f
9:50pm 6.5ft 8s 6s 7 9 mph 1015.5mb 76f 76f
8:50pm 7ft 8s 6s 9 11 mph 1015.9mb 76f 76f
7:50pm 6ft 8s 6s 9 11 mph 1016.1mb 76f 76f
6:50pm 7ft 8s 6s 9 11 mph 1016.9mb 76f 76f
5:50pm 6ft 8s 6s 13 16 mph 1018.3mb 76f 76f
4:50pm 6ft 9s 6s 11 13 mph 1020mb 76f 76f
3:50pm 6.5ft 8s 6s 11 16 mph 1020.6mb 76f 76f
2:50pm 6.5ft 8s 6s 16 18 mph 1020.6mb 76f 76f
1:50pm 7ft 8s 6s 16 18 mph 1020.2mb 76f 76f
12:50pm 7ft 8s 6s 16 20 mph 1019.9mb 76f 76f
11:50am 6.5ft 7s 6s 18 22 mph 1019.1mb 76f 76f
10:50am 7ft 7s 6s 18 20 mph 1019.3mb 76f 76f
9:50am 6ft 7s 5s 20 22 mph 1018.9mb 76f 76f
8:50am 6ft 7s 5s 20 25 mph 1019.3mb 76f 76f
7:50am 5ft 6s 5s 20 25 mph 1019.5mb 76f 76f
6:50am 5ft 6s 5s 20 25 mph 1020.1mb 76f 76f
5:50am 4.5ft 6s 5s 18 22 mph 1020.5mb 76f 76f
4:50am 4.5ft 6s 5s 16 18 mph 1021mb 76f 76f
3:50am 4.5ft 6s 5s 18 20 mph 1020.9mb 76f 76f
2:50am 4ft 6s 5s 18 20 mph 1021mb 76f 76f
1:50am 4.5ft 7s 5s 18 20 mph 1020.9mb 76f 75f
12:50am 4.5ft 7s 5s 16 18 mph 1020.8mb 76f 75f
Fri 11/21 11:50pm 4.5ft 7s 5s 18 20 mph 1020.5mb 76f 74f
10:50pm 4.5ft 7s 5s 18 20 mph 1020.3mb 76f 74f
9:50pm 4.5ft 7s 5s 18 20 mph 1020.1mb 76f 74f
8:50pm 4.5ft 7s 5s 18 20 mph 1020.3mb 76f 73f
7:50pm 4.5ft 7s 5s 16 20 mph 1020.6mb 76f 73f
6:50pm 4.5ft 7s 5s 18 22 mph 1021.1mb 76f 73f
5:50pm  -   -   -  18 20 mph 1022.2mb 76f 73f
4:50pm 4.5ft 7s 5s 18 22 mph 1022.8mb 76f 73f
3:50pm 4ft 7s 5s 16 20 mph 1023.4mb 76f 73f
2:50pm 4.5ft 8s 5s 13 16 mph 1023.3mb 76f 73f
1:50pm 4.5ft 7s 5s 16 18 mph 1022.5mb 76f 73f
12:50pm 4ft 6s 5s 16 18 mph 1022.1mb 76f 73f
11:50am 4ft 6s 5s 16 18 mph 1021.5mb 76f 73f
10:50am 4ft 6s 5s 13 18 mph 1021mb 76f 72f
9:50am 3.5ft 6s 5s 16 18 mph 1021mb 76f 72f
8:50am 3.5ft 6s 5s 16 18 mph 1020.8mb 76f 72f
7:50am 3.5ft 6s 5s 13 18 mph 1021mb 76f 72f
6:50am 4ft 6s 5s 11 16 mph 1021.2mb 76f 72f
5:50am 3.5ft 7s 5s 13 18 mph 1021.5mb 76f 72f
4:50am 3.5ft 6s 5s 11 16 mph 1022.1mb 76f 72f
3:50am 3.5ft 6s 5s 11 16 mph 1022.2mb 76f 72f
2:50am 4ft 5s 5s 13 18 mph 1021.9mb 76f 71f
1:50am 3.5ft 7s 4s 13 16 mph 1021.8mb 76f 72f
12:50am 4ft 7s 5s 18 20 mph 1021.1mb 76f 71f
Thu 11/20 11:50pm 4ft 7s 5s 16 20 mph 1021mb 76f 71f
10:50pm 4ft 6s 5s 16 20 mph 1021.2mb 76f 71f
9:50pm 4ft 7s 5s 13 20 mph 1021.2mb 76f 71f
8:50pm 4.5ft 6s 5s 16 20 mph 1021.1mb 76f 71f
7:50pm 3.5ft 7s 5s 16 20 mph 1021.4mb 76f 71f
6:50pm 4ft 7s 5s 16 20 mph 1021.8mb 76f 70f
5:50pm 3.5ft 7s 5s 16 20 mph 1022.9mb 76f 70f
4:50pm 4ft 7s 5s 13 18 mph 1024.6mb 76f 70f
3:50pm 3.5ft 7s 5s 16 20 mph 1025.3mb 76f 70f
2:50pm 3.5ft 7s 5s 16 22 mph 1024.8mb 76f 69f
1:50pm 4ft 7s 5s 13 18 mph 1024.6mb 76f 69f
12:50pm 3.5ft 7s 5s 11 18 mph 1024.2mb 76f 69f
11:50am 4ft 7s 5s 13 16 mph 1023.6mb 76f 68f
10:50am 4ft 7s 5s 11 13 mph 1023.2mb 76f 68f
9:50am 4ft 7s 5s 11 13 mph 1023.4mb 76f 68f
8:50am 4.5ft 7s 5s 11 16 mph 1023.6mb 76f 68f